Time;durP1;ratioP1;P1;durP2;ratioP2;P2;SDS_P1;SDS_P2;PMS_P1;PMS_P2;Temp;Humidity;BMP_temperature;BMP_pressure;BME280_temperature;BME280_humidity;BME280_pressure;Samples;Min_cycle;Max_cycle;Signal;HPM_P1;HPM_P2
2021/12/03 00:00:24;;;;;;;9.00;6.38;;;6.30;92.80;;;;;;5076228;28;20070;-63
2021/12/03 00:02:50;;;;;;;9.98;6.78;;;6.30;91.60;;;;;;5076100;28;20034;-62
2021/12/03 00:05:16;;;;;;;12.05;6.78;;;6.30;91.10;;;;;;5075257;28;20020;-63
2021/12/03 00:07:43;;;;;;;8.95;6.60;;;6.30;90.50;;;;;;5075422;28;20113;-63
2021/12/03 00:10:11;;;;;;;8.55;6.13;;;6.40;90.30;;;;;;5078904;28;20028;-63
2021/12/03 00:12:37;;;;;;;9.13;6.82;;;6.30;90.00;;;;;;5096001;28;20137;-63
2021/12/03 00:15:06;;;;;;;10.10;6.70;;;6.30;90.00;;;;;;5094941;28;20036;-63
2021/12/03 00:17:32;;;;;;;9.57;5.63;;;6.30;89.40;;;;;;5092011;28;20021;-63
2021/12/03 00:19:57;;;;;;;9.38;6.28;;;6.30;88.80;;;;;;5075204;28;20024;-63
2021/12/03 00:22:23;;;;;;;11.65;5.93;;;6.30;88.20;;;;;;5074793;28;20119;-63
2021/12/03 00:24:50;;;;;;;9.18;5.63;;;6.30;86.70;;;;;;5075679;28;20525;-63
2021/12/03 00:27:15;;;;;;;8.40;5.72;;;6.30;85.70;;;;;;5074673;28;20485;-63
2021/12/03 00:29:41;;;;;;;8.77;5.03;;;6.30;85.10;;;;;;5082566;28;20016;-62
2021/12/03 00:32:07;;;;;;;7.72;5.22;;;6.20;83.90;;;;;;5094759;28;20031;-62
2021/12/03 00:34:33;;;;;;;7.93;5.00;;;6.20;83.70;;;;;;5095277;28;20028;-62
2021/12/03 00:36:59;;;;;;;5.80;4.25;;;6.20;83.10;;;;;;5095456;28;20031;-62
2021/12/03 00:39:26;;;;;;;6.57;4.15;;;6.20;82.60;;;;;;5094823;28;20028;-62
2021/12/03 00:41:57;;;;;;;6.68;4.03;;;6.20;81.50;;;;;;5095526;28;20032;-61
2021/12/03 00:44:25;;;;;;;7.57;4.32;;;6.20;80.40;;;;;;5094844;28;20043;-63
2021/12/03 00:46:50;;;;;;;6.88;3.92;;;6.30;79.00;;;;;;5095472;28;20044;-62
2021/12/03 00:49:16;;;;;;;10.43;4.22;;;6.20;78.60;;;;;;5094457;28;20042;-62
2021/12/03 00:51:42;;;;;;;7.72;4.00;;;6.30;78.60;;;;;;5095221;28;20028;-62
2021/12/03 00:54:08;;;;;;;7.88;3.70;;;6.20;77.80;;;;;;5094507;28;20035;-63
2021/12/03 00:56:34;;;;;;;7.88;4.18;;;6.30;77.60;;;;;;5095126;28;20135;-62
2021/12/03 00:58:59;;;;;;;6.65;4.10;;;6.20;77.30;;;;;;5094173;28;20527;-64
2021/12/03 01:01:25;;;;;;;8.20;4.47;;;6.20;77.70;;;;;;5094409;28;20032;-63
2021/12/03 01:03:51;;;;;;;7.65;4.40;;;6.20;78.40;;;;;;5095151;28;20544;-63
2021/12/03 01:06:17;;;;;;;7.93;4.60;;;6.10;79.20;;;;;;5093082;28;20465;-63
2021/12/03 01:08:42;;;;;;;8.52;5.03;;;6.10;79.90;;;;;;5094648;28;20028;-63
2021/12/03 01:11:10;;;;;;;7.32;4.68;;;6.00;80.20;;;;;;5094158;28;20024;-63
2021/12/03 01:13:38;;;;;;;11.15;5.05;;;6.00;80.90;;;;;;5094932;28;20101;-63
2021/12/03 01:16:05;;;;;;;7.68;4.60;;;5.90;81.10;;;;;;5094226;28;20034;-63
2021/12/03 01:18:31;;;;;;;8.25;4.90;;;5.90;81.50;;;;;;5091334;28;20062;-63
2021/12/03 01:20:57;;;;;;;11.13;5.10;;;5.80;81.60;;;;;;5094318;28;20070;-63
2021/12/03 01:23:23;;;;;;;7.72;5.35;;;5.80;81.60;;;;;;5094210;28;20036;-63
2021/12/03 01:25:49;;;;;;;7.70;5.00;;;5.70;81.70;;;;;;5092871;28;20075;-63
2021/12/03 01:28:16;;;;;;;12.50;5.85;;;5.70;81.90;;;;;;5073763;28;20025;-63
2021/12/03 01:30:42;;;;;;;9.23;5.35;;;5.60;82.30;;;;;;5074271;28;20021;-63
2021/12/03 01:33:08;;;;;;;7.97;5.10;;;5.60;82.60;;;;;;5073636;28;20166;-63
2021/12/03 01:35:36;;;;;;;10.10;4.72;;;5.60;83.20;;;;;;5073742;28;20541;-63
2021/12/03 01:38:21;;;;;;;8.27;5.00;;;5.50;83.60;;;;;;5074082;28;20373;-63
2021/12/03 01:40:47;;;;;;;13.43;5.10;;;5.50;83.50;;;;;;5074050;28;20062;-63
2021/12/03 01:43:20;;;;;;;11.43;5.22;;;5.50;83.80;;;;;;5073334;28;20056;-63
2021/12/03 01:45:47;;;;;;;8.18;5.22;;;5.50;84.10;;;;;;5073766;28;20052;-63
2021/12/03 01:48:12;;;;;;;7.80;4.82;;;5.50;84.30;;;;;;5073230;28;20025;-63
2021/12/03 01:50:41;;;;;;;12.38;5.43;;;5.50;84.00;;;;;;5073848;28;20036;-63
2021/12/03 01:53:08;;;;;;;9.63;5.38;;;5.50;83.50;;;;;;5073702;28;20025;-63
2021/12/03 01:55:35;;;;;;;8.68;5.35;;;5.50;83.60;;;;;;5073558;28;20032;-63
2021/12/03 01:58:02;;;;;;;10.32;5.32;;;5.50;84.20;;;;;;5073774;28;20132;-63
2021/12/03 02:00:32;;;;;;;10.82;5.50;;;5.50;84.70;;;;;;5073108;28;20115;-63
2021/12/03 02:02:59;;;;;;;13.48;5.32;;;5.50;85.20;;;;;;5073832;28;20032;-63
2021/12/03 02:05:25;;;;;;;8.57;5.47;;;5.50;85.60;;;;;;5072902;28;20110;-63
2021/12/03 02:07:51;;;;;;;9.02;5.22;;;5.50;85.80;;;;;;5073907;28;20499;-63
2021/12/03 02:10:20;;;;;;;12.57;6.10;;;5.50;85.80;;;;;;5071768;28;20021;-63
2021/12/03 02:12:46;;;;;;;8.88;5.50;;;5.50;85.60;;;;;;5073450;28;20383;-63
2021/12/03 02:15:12;;;;;;;12.45;5.82;;;5.50;85.20;;;;;;5072739;28;20115;-64
2021/12/03 02:17:38;;;;;;;11.75;5.47;;;5.50;85.10;;;;;;5073012;28;20032;-63
2021/12/03 02:20:07;;;;;;;8.63;5.40;;;5.40;85.30;;;;;;5073036;28;20082;-63
2021/12/03 02:22:33;;;;;;;9.43;4.95;;;5.40;85.30;;;;;;5072705;28;20029;-63
2021/12/03 02:25:20;;;;;;;9.13;5.50;;;5.40;85.60;;;;;;5073178;28;20039;-63
2021/12/03 02:27:49;;;;;;;7.38;5.13;;;5.40;85.50;;;;;;5073191;28;20070;-63
2021/12/03 02:30:15;;;;;;;8.75;5.32;;;5.40;85.70;;;;;;5072757;28;20435;-64
2021/12/03 02:32:41;;;;;;;9.55;5.72;;;5.40;85.80;;;;;;5072783;28;20060;-63
2021/12/03 02:35:07;;;;;;;9.07;5.75;;;5.40;86.10;;;;;;5072700;28;20032;-63
2021/12/03 02:37:33;;;;;;;7.78;5.22;;;5.40;86.40;;;;;;5072446;28;20381;-63
2021/12/03 02:39:59;;;;;;;11.45;5.55;;;5.40;86.40;;;;;;5072934;28;20112;-63
2021/12/03 02:42:25;;;;;;;8.43;4.82;;;5.40;86.30;;;;;;5072287;28;20449;-63
2021/12/03 02:44:51;;;;;;;10.02;4.35;;;5.40;85.20;;;;;;5072623;28;20052;-62
2021/12/03 02:47:17;;;;;;;6.40;4.10;;;5.40;83.90;;;;;;5072280;28;20436;-62
2021/12/03 02:49:43;;;;;;;7.78;4.90;;;5.50;82.50;;;;;;5073059;28;20046;-63
2021/12/03 02:52:10;;;;;;;9.13;4.50;;;5.50;81.70;;;;;;5072463;28;20092;-63
2021/12/03 02:54:36;;;;;;;7.18;4.00;;;5.40;80.20;;;;;;5071682;28;20028;-62
2021/12/03 02:57:03;;;;;;;8.48;3.90;;;5.40;79.00;;;;;;5072570;28;20107;-62
2021/12/03 02:59:32;;;;;;;7.57;3.95;;;5.40;76.70;;;;;;5071950;28;20039;-63
2021/12/03 03:01:58;;;;;;;9.27;3.75;;;5.40;76.40;;;;;;5072536;28;20033;-63
2021/12/03 03:04:24;;;;;;;6.95;3.60;;;5.40;75.30;;;;;;5071929;28;20346;-63
2021/12/03 03:06:50;;;;;;;6.25;3.63;;;5.40;73.70;;;;;;5072162;28;20403;-63
2021/12/03 03:09:16;;;;;;;7.65;3.85;;;5.40;73.30;;;;;;5071535;28;20032;-62
2021/12/03 03:11:42;;;;;;;8.43;3.85;;;5.40;72.00;;;;;;5072398;28;20035;-62
2021/12/03 03:14:08;;;;;;;7.40;3.58;;;5.40;72.30;;;;;;5072257;28;20028;-63
2021/12/03 03:16:34;;;;;;;4.15;3.00;;;5.40;72.50;;;;;;5071744;28;20343;-63
2021/12/03 03:19:13;;;;;;;6.55;3.30;;;5.40;71.60;;;;;;5072253;28;20032;-62
2021/12/03 03:21:40;;;;;;;6.75;3.63;;;5.40;70.70;;;;;;5074561;28;20024;-63
2021/12/03 03:24:08;;;;;;;7.50;3.90;;;5.40;71.30;;;;;;5072236;28;20024;-62
2021/12/03 03:26:40;;;;;;;5.25;3.35;;;5.40;71.00;;;;;;5071584;28;20086;-62
2021/12/03 03:29:07;;;;;;;5.38;3.60;;;5.40;71.10;;;;;;5072238;28;20028;-62
2021/12/03 03:31:34;;;;;;;7.20;3.40;;;5.40;71.40;;;;;;5087852;28;20024;-63
2021/12/03 03:34:00;;;;;;;7.80;4.13;;;5.50;71.60;;;;;;5092339;28;20036;-62
2021/12/03 03:36:26;;;;;;;5.43;3.45;;;5.50;71.90;;;;;;5091696;28;20423;-62
2021/12/03 03:38:52;;;;;;;6.93;3.50;;;5.50;72.00;;;;;;5091957;28;20038;-63
2021/12/03 03:41:18;;;;;;;6.13;3.05;;;5.40;72.40;;;;;;5091589;28;20055;-62
2021/12/03 03:43:44;;;;;;;7.90;3.30;;;5.40;72.40;;;;;;5092221;28;20104;-63
2021/12/03 03:46:10;;;;;;;7.40;2.95;;;5.40;72.90;;;;;;5092120;28;20135;-62
2021/12/03 03:48:54;;;;;;;5.35;2.92;;;5.40;72.80;;;;;;5091475;28;20280;-62
2021/12/03 03:51:20;;;;;;;5.70;3.17;;;5.40;72.40;;;;;;5091546;28;20103;-63
2021/12/03 03:53:46;;;;;;;8.13;3.10;;;5.40;72.40;;;;;;5092126;28;20056;-62
2021/12/03 03:56:12;;;;;;;6.53;3.17;;;5.30;72.90;;;;;;5091990;28;20163;-62
2021/12/03 03:58:38;;;;;;;5.18;2.88;;;5.30;72.60;;;;;;5091141;28;20076;-62
2021/12/03 04:01:05;;;;;;;6.88;3.08;;;5.30;72.90;;;;;;5091828;28;20100;-62
2021/12/03 04:03:32;;;;;;;5.60;3.20;;;5.30;73.00;;;;;;5091389;28;20028;-62
2021/12/03 04:05:59;;;;;;;5.50;3.10;;;5.40;73.00;;;;;;5092101;28;20503;-62
2021/12/03 04:08:28;;;;;;;6.68;3.33;;;5.40;72.60;;;;;;5091720;28;20545;-62
2021/12/03 04:10:56;;;;;;;4.47;3.10;;;5.30;72.80;;;;;;5091957;28;20020;-62
2021/12/03 04:13:22;;;;;;;5.00;3.13;;;5.30;73.20;;;;;;5091316;28;20024;-63
2021/12/03 04:15:48;;;;;;;6.65;3.42;;;5.20;73.50;;;;;;5091797;28;20039;-62
2021/12/03 04:18:14;;;;;;;5.78;2.65;;;5.20;73.30;;;;;;5091902;28;20038;-62
2021/12/03 04:20:40;;;;;;;6.47;2.95;;;5.20;72.30;;;;;;5091096;28;20488;-62
2021/12/03 04:23:05;;;;;;;7.07;2.80;;;5.10;71.60;;;;;;5091815;28;20028;-62
2021/12/03 04:25:33;;;;;;;5.72;2.90;;;5.10;71.10;;;;;;5091221;28;20369;-62
2021/12/03 04:27:59;;;;;;;6.68;2.95;;;5.10;71.20;;;;;;5091498;28;20457;-62
2021/12/03 04:30:27;;;;;;;7.82;3.05;;;5.10;71.80;;;;;;5091209;28;20055;-63
2021/12/03 04:32:53;;;;;;;6.25;3.30;;;5.00;72.30;;;;;;5091438;28;20492;-62
2021/12/03 04:35:19;;;;;;;7.72;2.97;;;5.00;72.50;;;;;;5094841;28;20039;-62
2021/12/03 04:37:45;;;;;;;7.25;2.92;;;5.00;72.80;;;;;;5095691;28;20028;-62
2021/12/03 04:40:14;;;;;;;6.30;3.08;;;5.00;73.00;;;;;;5095620;28;20032;-62
2021/12/03 04:42:41;;;;;;;4.78;2.95;;;4.90;72.60;;;;;;5094917;28;20263;-62
2021/12/03 04:45:09;;;;;;;8.40;3.08;;;4.90;72.20;;;;;;5095179;28;20059;-62
2021/12/03 04:47:35;;;;;;;6.00;3.08;;;4.90;72.20;;;;;;5094903;28;20020;-62
2021/12/03 04:50:02;;;;;;;5.95;2.83;;;4.80;72.50;;;;;;5074297;28;20031;-62
2021/12/03 04:52:28;;;;;;;6.35;3.00;;;4.80;72.80;;;;;;5088192;28;20028;-62
2021/12/03 04:54:54;;;;;;;5.30;2.45;;;4.80;72.90;;;;;;5095051;28;20051;-63
2021/12/03 04:57:19;;;;;;;4.68;2.92;;;4.80;73.30;;;;;;5095228;28;20032;-63
2021/12/03 04:59:45;;;;;;;7.13;2.80;;;4.80;73.20;;;;;;5094279;28;20469;-62
2021/12/03 05:02:11;;;;;;;7.43;3.58;;;4.80;73.50;;;;;;5094939;28;20016;-62
2021/12/03 05:04:38;;;;;;;5.90;3.05;;;4.70;73.70;;;;;;5094519;28;20095;-63
2021/12/03 05:09:31;;;;;;;8.43;3.10;;;4.70;74.70;;;;;;5078758;28;20107;-63
2021/12/03 05:11:58;;;;;;;5.90;3.10;;;4.60;75.20;;;;;;5082053;28;20111;-63
2021/12/03 05:14:24;;;;;;;4.10;2.65;;;4.60;75.40;;;;;;5087103;28;20035;-63
2021/12/03 05:16:49;;;;;;;7.15;3.30;;;4.60;75.90;;;;;;5078502;28;20032;-63
2021/12/03 05:19:16;;;;;;;5.68;3.20;;;4.50;76.10;;;;;;5085980;28;20089;-63
2021/12/03 05:22:01;;;;;;;5.28;2.92;;;4.50;76.10;;;;;;5082721;28;20724;-63
2021/12/03 05:24:26;;;;;;;8.52;3.08;;;4.40;76.20;;;;;;5081837;28;20034;-63
2021/12/03 05:26:52;;;;;;;4.97;2.97;;;4.40;76.70;;;;;;5085473;28;20028;-64
2021/12/03 05:29:18;;;;;;;5.20;3.17;;;4.40;77.30;;;;;;5084036;28;20438;-63
2021/12/03 05:31:44;;;;;;;7.75;3.47;;;4.30;78.00;;;;;;5089737;28;20020;-63
2021/12/03 05:34:13;;;;;;;6.80;3.15;;;4.30;78.40;;;;;;5093323;28;20074;-62
2021/12/03 05:36:39;;;;;;;8.55;3.30;;;4.30;78.70;;;;;;5093350;28;20115;-63
2021/12/03 05:39:06;;;;;;;5.95;3.55;;;4.30;79.30;;;;;;5091188;28;20056;-63
2021/12/03 05:41:33;;;;;;;11.38;3.55;;;4.30;79.80;;;;;;5093435;28;20024;-63
2021/12/03 05:44:00;;;;;;;8.27;4.25;;;4.30;80.30;;;;;;5094085;28;20126;-62
2021/12/03 05:46:26;;;;;;;8.07;3.72;;;4.30;80.60;;;;;;5093287;28;20493;-63
2021/12/03 05:48:51;;;;;;;9.05;3.80;;;4.30;80.70;;;;;;5094183;28;20058;-63
2021/12/03 05:51:18;;;;;;;9.13;4.53;;;4.30;81.10;;;;;;5093973;28;20055;-63
2021/12/03 05:53:43;;;;;;;7.75;3.92;;;4.30;81.40;;;;;;5093224;28;20472;-63
2021/12/03 05:56:09;;;;;;;9.50;4.07;;;4.30;81.80;;;;;;5092507;28;20054;-63
2021/12/03 05:58:35;;;;;;;7.65;4.05;;;4.30;82.10;;;;;;5092848;28;20024;-63
2021/12/03 06:01:01;;;;;;;11.25;4.72;;;4.30;82.40;;;;;;5076320;28;20061;-63
2021/12/03 06:03:27;;;;;;;10.85;3.90;;;4.30;82.50;;;;;;5073709;28;20032;-63
2021/12/03 06:05:53;;;;;;;10.07;4.10;;;4.30;82.70;;;;;;5072740;28;20424;-63
2021/12/03 06:08:18;;;;;;;6.88;3.88;;;4.30;82.60;;;;;;5072955;28;20056;-63
2021/12/03 06:10:44;;;;;;;6.30;4.30;;;4.40;82.70;;;;;;5071985;28;20107;-63
2021/12/03 06:13:10;;;;;;;9.30;3.90;;;4.30;82.80;;;;;;5072553;28;20462;-62
2021/12/03 06:15:36;;;;;;;11.55;4.75;;;4.40;82.90;;;;;;5071927;28;20033;-62
2021/12/03 06:18:02;;;;;;;7.55;4.03;;;4.40;83.00;;;;;;5072779;28;20071;-62
2021/12/03 06:20:28;;;;;;;8.02;4.32;;;4.40;83.10;;;;;;5072104;28;20040;-62
2021/12/03 06:22:54;;;;;;;7.65;4.30;;;4.40;83.30;;;;;;5072933;28;20021;-62
2021/12/03 06:25:21;;;;;;;11.93;4.60;;;4.40;83.70;;;;;;5072279;28;20377;-62
2021/12/03 06:27:47;;;;;;;9.43;4.68;;;4.40;83.80;;;;;;5071701;28;20028;-62
2021/12/03 06:30:18;;;;;;;7.43;4.47;;;4.40;84.20;;;;;;5072487;28;20029;-63
2021/12/03 06:32:44;;;;;;;9.43;4.75;;;4.40;84.40;;;;;;5072305;28;20531;-62
2021/12/03 06:35:12;;;;;;;8.05;4.68;;;4.40;85.00;;;;;;5072884;28;20060;-62
2021/12/03 06:37:38;;;;;;;7.78;4.70;;;4.40;85.20;;;;;;5072647;28;20024;-63
2021/12/03 06:40:06;;;;;;;7.65;5.00;;;4.40;85.30;;;;;;5072904;28;20074;-63
2021/12/03 06:42:32;;;;;;;7.88;4.53;;;4.40;85.10;;;;;;5071752;28;20427;-62
2021/12/03 06:44:58;;;;;;;7.65;4.90;;;4.30;85.40;;;;;;5072247;28;20043;-62
2021/12/03 06:47:24;;;;;;;6.40;5.30;;;4.30;85.50;;;;;;5072551;28;20024;-62
2021/12/03 06:49:49;;;;;;;8.48;5.47;;;4.30;85.70;;;;;;5072311;28;20048;-62
2021/12/03 06:52:16;;;;;;;10.73;4.78;;;4.30;85.70;;;;;;5072658;28;20032;-62
2021/12/03 06:54:43;;;;;;;9.05;5.07;;;4.30;85.50;;;;;;5071948;28;20469;-62
2021/12/03 06:57:10;;;;;;;9.52;5.13;;;4.30;85.70;;;;;;5071978;28;20082;-63
2021/12/03 06:59:37;;;;;;;6.03;4.80;;;4.30;85.70;;;;;;5071983;28;20115;-62
2021/12/03 07:02:04;;;;;;;8.80;5.18;;;4.30;85.70;;;;;;5072345;28;20032;-63
2021/12/03 07:04:30;;;;;;;6.90;4.88;;;4.30;85.40;;;;;;5072397;28;20034;-62
2021/12/03 07:06:56;;;;;;;11.82;5.28;;;4.30;85.20;;;;;;5071509;28;20377;-62
2021/12/03 07:09:21;;;;;;;7.30;4.75;;;4.30;85.70;;;;;;5072105;28;20070;-63
2021/12/03 07:11:47;;;;;;;8.93;4.82;;;4.20;84.20;;;;;;5071654;28;20024;-63
2021/12/03 07:14:13;;;;;;;8.35;5.43;;;4.30;83.90;;;;;;5072034;28;20024;-63
2021/12/03 07:16:39;;;;;;;10.05;4.60;;;4.30;83.60;;;;;;5071193;28;20150;-62
2021/12/03 07:19:05;;;;;;;12.32;4.75;;;4.30;83.00;;;;;;5071987;28;20052;-62
2021/12/03 07:21:31;;;;;;;7.28;5.20;;;4.20;82.40;;;;;;5071774;28;20358;-62
2021/12/03 07:23:57;;;;;;;7.20;4.57;;;4.30;82.40;;;;;;5071784;28;20032;-63
2021/12/03 07:26:41;;;;;;;9.40;4.65;;;4.30;82.80;;;;;;5072099;28;20029;-62
2021/12/03 07:29:07;;;;;;;7.93;4.78;;;4.30;82.20;;;;;;5072004;28;20183;-63
2021/12/03 07:31:33;;;;;;;8.20;4.95;;;4.30;82.20;;;;;;5072120;28;20457;-63
2021/12/03 07:33:59;;;;;;;7.22;4.35;;;4.30;82.50;;;;;;5074023;28;20024;-63
2021/12/03 07:36:25;;;;;;;7.50;5.00;;;4.30;82.80;;;;;;5071883;28;20074;-62
2021/12/03 07:38:51;;;;;;;6.43;4.80;;;4.30;83.10;;;;;;5085311;28;20044;-62
2021/12/03 07:41:17;;;;;;;8.82;5.03;;;4.30;83.30;;;;;;5091869;28;20079;-62
2021/12/03 07:43:42;;;;;;;10.07;4.85;;;4.40;83.80;;;;;;5091485;28;20052;-62
2021/12/03 07:46:08;;;;;;;8.32;6.22;;;4.30;83.90;;;;;;5091812;28;20044;-63
2021/12/03 07:48:35;;;;;;;9.30;5.07;;;4.40;84.30;;;;;;5092133;28;20103;-62
2021/12/03 07:51:01;;;;;;;16.85;7.15;;;4.40;84.60;;;;;;5092159;28;20056;-62
2021/12/03 07:53:27;;;;;;;7.93;5.35;;;4.40;84.60;;;;;;5091796;28;20063;-62
2021/12/03 07:55:53;;;;;;;8.32;5.53;;;4.40;84.80;;;;;;5091396;28;20027;-62
2021/12/03 07:58:19;;;;;;;9.40;6.32;;;4.40;84.50;;;;;;5092042;28;20024;-62
2021/12/03 08:00:46;;;;;;;10.07;5.68;;;4.50;84.40;;;;;;5091375;28;20024;-62
2021/12/03 08:03:12;;;;;;;8.52;5.82;;;4.50;84.40;;;;;;5091994;28;20021;-62
2021/12/03 08:05:38;;;;;;;11.15;6.60;;;4.50;84.50;;;;;;5091011;28;20078;-63
2021/12/03 08:08:05;;;;;;;10.65;5.50;;;4.60;84.40;;;;;;5092032;28;20051;-62
2021/12/03 08:10:34;;;;;;;8.88;5.72;;;4.60;84.70;;;;;;5095671;28;20047;-63
2021/12/03 08:13:00;;;;;;;10.55;6.10;;;4.60;84.70;;;;;;5095244;28;20024;-62
2021/12/03 08:15:25;;;;;;;7.88;6.50;;;4.70;84.80;;;;;;5095897;28;20028;-62
2021/12/03 08:17:51;;;;;;;11.80;6.53;;;4.70;84.70;;;;;;5094932;28;20032;-62
2021/12/03 08:20:18;;;;;;;10.90;6.55;;;4.70;85.00;;;;;;5095813;28;20020;-62
2021/12/03 08:22:44;;;;;;;10.18;6.93;;;4.80;85.30;;;;;;5095171;28;20028;-62
2021/12/03 08:25:11;;;;;;;10.70;6.57;;;4.80;85.80;;;;;;5095691;28;20376;-62
2021/12/03 08:27:39;;;;;;;8.35;6.45;;;4.80;86.00;;;;;;5095676;28;20027;-62
2021/12/03 08:30:08;;;;;;;12.38;6.82;;;4.80;86.50;;;;;;5095611;28;20020;-63
2021/12/03 08:32:34;;;;;;;8.93;7.00;;;4.80;85.90;;;;;;5095453;28;20445;-62
2021/12/03 08:35:00;;;;;;;10.55;7.03;;;4.80;86.20;;;;;;5094840;28;20074;-63
2021/12/03 08:37:25;;;;;;;9.88;6.82;;;4.80;86.50;;;;;;5095519;28;20028;-62
2021/12/03 08:39:51;;;;;;;11.52;6.95;;;4.80;86.40;;;;;;5094919;28;20020;-62
2021/12/03 08:42:18;;;;;;;7.70;6.90;;;4.80;86.80;;;;;;5095446;28;20024;-63
2021/12/03 08:44:44;;;;;;;9.32;7.28;;;4.90;86.90;;;;;;5094965;28;20031;-62
2021/12/03 08:47:10;;;;;;;12.15;7.05;;;4.90;87.20;;;;;;5095156;28;20040;-63
2021/12/03 08:54:54;;;;;;;8.90;7.40;;;4.90;87.50;;;;;;5094517;28;20110;-63
2021/12/03 08:57:24;;;;;;;14.52;7.50;;;5.00;88.20;;;;;;5095171;28;20093;-62
2021/12/03 08:59:52;;;;;;;10.70;7.47;;;5.00;88.70;;;;;;5094634;28;20024;-62
2021/12/03 09:02:18;;;;;;;7.03;6.32;;;5.00;89.30;;;;;;5095020;28;20039;-62
2021/12/03 09:04:44;;;;;;;8.60;6.93;;;5.00;89.80;;;;;;5094384;28;20028;-62
2021/12/03 09:07:10;;;;;;;9.18;7.18;;;4.90;90.00;;;;;;5094845;28;20421;-63
2021/12/03 09:09:36;;;;;;;8.75;6.75;;;4.90;90.20;;;;;;5095008;28;20058;-63
2021/12/03 09:12:02;;;;;;;7.70;6.18;;;4.90;90.00;;;;;;5094311;28;20341;-63
2021/12/03 09:22:31;;;;;;;8.45;6.22;;;4.90;89.30;;;;;;5093528;28;20448;-63
2021/12/03 09:24:57;;;;;;;6.10;5.07;;;4.90;88.40;;;;;;5094030;28;20024;-63
2021/12/03 09:27:22;;;;;;;8.57;5.78;;;4.90;87.90;;;;;;5091329;28;20020;-62
2021/12/03 09:29:50;;;;;;;8.95;5.47;;;4.90;88.00;;;;;;5093953;28;20024;-63
2021/12/03 09:32:21;;;;;;;6.03;4.75;;;4.90;87.60;;;;;;5094582;28;20111;-63
2021/12/03 09:34:48;;;;;;;7.28;5.07;;;5.00;87.30;;;;;;5093854;28;20043;-62
2021/12/03 09:37:13;;;;;;;6.75;4.90;;;5.00;87.40;;;;;;5094022;28;20028;-62
2021/12/03 09:39:41;;;;;;;7.05;4.65;;;5.10;86.00;;;;;;5077079;28;20044;-62
2021/12/03 09:42:07;;;;;;;6.38;4.72;;;5.10;85.00;;;;;;5073488;28;20108;-63
2021/12/03 09:44:33;;;;;;;9.45;3.80;;;5.10;84.70;;;;;;5073740;28;20063;-63
2021/12/03 09:47:00;;;;;;;5.75;3.85;;;5.10;83.80;;;;;;5072783;28;20060;-63
2021/12/03 09:49:37;;;;;;;4.95;4.00;;;5.10;83.50;;;;;;5073984;28;20042;-63
2021/12/03 09:54:41;;;;;;;6.18;3.97;;;5.10;83.20;;;;;;5073916;28;20150;-63
2021/12/03 09:57:16;;;;;;;5.38;4.30;;;5.10;83.40;;;;;;5073109;28;20465;-62
2021/12/03 10:05:35;;;;;;;6.00;5.13;;;5.30;83.90;;;;;;5072783;28;20040;-62
2021/12/03 10:21:55;;;;;;;;;;;6.00;82.60;;;;;;5073460;28;20032;-63
2021/12/03 10:30:21;;;;;;;10.32;6.82;;;6.30;77.00;;;;;;5072622;28;20068;-62
2021/12/03 11:05:19;;;;;;;7.65;5.65;;;6.30;69.40;;;;;;5072354;28;20400;-63
2021/12/03 13:13:59;;;;;;;7.05;5.72;;;5.80;70.80;;;;;;5094788;28;20389;-62
2021/12/03 14:03:45;;;;;;;11.23;5.75;;;5.40;71.10;;;;;;5073565;28;20055;-62
2021/12/03 14:39:07;;;;;;;6.13;4.90;;;5.30;70.80;;;;;;5072944;28;20036;-63
2021/12/03 14:57:33;;;;;;;6.40;4.85;;;5.20;70.50;;;;;;5072221;28;20087;-63
2021/12/03 15:08:24;;;;;;;6.40;4.82;;;5.00;70.20;;;;;;5071671;28;20032;-62
2021/12/03 15:16:45;;;;;;;4.93;4.38;;;5.00;71.00;;;;;;5072224;28;20403;-62
2021/12/03 15:32:07;;;;;;;9.13;5.78;;;4.80;71.80;;;;;;5071794;28;20217;-63
2021/12/03 16:04:35;;;;;;;5.97;4.97;;;4.40;76.40;;;;;;5085861;28;20107;-62
2021/12/03 16:07:27;;;;;;;5.93;4.88;;;4.30;76.80;;;;;;5090882;28;20073;-62
2021/12/03 16:23:01;;;;;;;6.40;5.13;;;4.10;78.30;;;;;;5089187;28;20433;-62
2021/12/03 16:52:11;;;;;;;9.93;7.90;;;3.90;79.20;;;;;;5074621;28;20035;-63
2021/12/03 16:54:51;;;;;;;12.27;7.93;;;3.90;79.50;;;;;;5074032;28;20033;-63
2021/12/03 16:57:18;;;;;;;12.77;8.25;;;3.90;79.50;;;;;;5074675;28;20036;-63
2021/12/03 16:59:46;;;;;;;10.55;7.63;;;3.90;79.50;;;;;;5074542;28;20068;-63
2021/12/03 17:02:21;;;;;;;11.05;7.57;;;3.90;79.50;;;;;;5073330;28;20032;-63
2021/12/03 17:22:14;;;;;;;10.77;7.10;;;3.90;78.10;;;;;;5094542;28;20486;-62
2021/12/03 17:48:43;;;;;;;12.82;9.02;;;3.90;78.40;;;;;;5070558;28;20036;-64
2021/12/03 17:56:19;;;;;;;12.65;8.50;;;3.90;78.20;;;;;;5093924;28;20525;-64
2021/12/03 17:58:48;;;;;;;11.00;8.40;;;3.80;78.10;;;;;;5092801;28;20449;-64
2021/12/03 18:01:19;;;;;;;12.18;8.25;;;3.80;78.10;;;;;;5093313;28;20353;-64
2021/12/03 18:44:38;;;;;;;12.00;9.05;;;3.80;77.40;;;;;;5071322;28;20078;-65
2021/12/03 18:52:23;;;;;;;15.27;9.88;;;3.70;77.00;;;;;;5070328;28;20025;-65
2021/12/03 18:57:44;;;;;;;13.57;9.52;;;3.70;77.00;;;;;;5065750;28;20032;-64
2021/12/03 19:00:14;;;;;;;14.43;9.98;;;3.70;77.20;;;;;;5070397;28;20036;-64
2021/12/03 19:02:43;;;;;;;14.32;9.90;;;3.70;76.80;;;;;;5069632;28;20039;-65
2021/12/03 19:08:30;;;;;;;12.65;9.50;;;3.60;77.50;;;;;;5069877;28;20059;-64
2021/12/03 19:10:29;;;;;;;11.60;9.57;;;3.60;77.30;;;;;;5061549;28;20040;-67
2021/12/03 19:13:08;;;;;;;14.68;10.48;;;3.60;77.40;;;;;;5070319;28;20029;-65
2021/12/03 19:15:35;;;;;;;15.07;9.85;;;3.60;77.30;;;;;;5070141;28;20037;-65
2021/12/03 19:18:02;;;;;;;14.07;9.75;;;3.60;78.00;;;;;;5070802;28;20035;-65
2021/12/03 19:20:32;;;;;;;13.77;9.75;;;3.60;78.10;;;;;;5072478;28;20100;-65
2021/12/03 19:22:58;;;;;;;11.40;9.10;;;3.60;77.80;;;;;;5070804;28;20048;-65
2021/12/03 19:25:25;;;;;;;11.95;8.68;;;3.60;77.50;;;;;;5070795;28;20032;-64
2021/12/03 19:27:50;;;;;;;14.10;9.38;;;3.60;77.80;;;;;;5071324;28;20035;-64
2021/12/03 19:30:16;;;;;;;11.60;9.18;;;3.60;77.20;;;;;;5071794;28;20021;-64
2021/12/03 19:32:42;;;;;;;14.98;9.73;;;3.60;77.20;;;;;;5071441;28;20354;-64
2021/12/03 19:35:09;;;;;;;18.55;12.63;;;3.60;76.80;;;;;;5072072;28;20033;-65
2021/12/03 19:37:36;;;;;;;15.07;10.75;;;3.50;77.30;;;;;;5071416;28;20023;-64
2021/12/03 19:40:07;;;;;;;14.35;9.45;;;3.50;77.30;;;;;;5074848;28;20031;-64
2021/12/03 19:42:38;;;;;;;11.27;8.73;;;3.50;77.20;;;;;;5071427;28;20094;-64
2021/12/03 19:45:07;;;;;;;12.38;9.15;;;3.50;76.90;;;;;;5071846;28;20040;-65
2021/12/03 19:48:18;;;;;;;11.55;8.40;;;3.50;76.50;;;;;;5071310;28;20032;-64
2021/12/03 19:52:53;;;;;;;10.95;7.72;;;3.50;75.80;;;;;;5071061;28;20024;-64
2021/12/03 19:55:19;;;;;;;10.80;7.85;;;3.50;75.40;;;;;;5071763;28;20076;-64
2021/12/03 19:57:44;;;;;;;12.60;8.18;;;3.50;75.30;;;;;;5070880;28;20032;-64
2021/12/03 20:00:11;;;;;;;12.98;8.23;;;3.50;75.20;;;;;;5071778;28;20029;-64
2021/12/03 20:02:37;;;;;;;13.52;8.20;;;3.50;75.40;;;;;;5071041;28;20039;-64
2021/12/03 20:05:04;;;;;;;11.85;7.88;;;3.50;75.10;;;;;;5074654;28;20115;-64
2021/12/03 20:07:30;;;;;;;11.52;8.13;;;3.50;75.10;;;;;;5075683;28;20031;-64
2021/12/03 20:10:02;;;;;;;11.00;8.23;;;3.50;75.20;;;;;;5075791;28;20021;-64
2021/12/03 20:12:31;;;;;;;13.68;8.55;;;3.50;75.50;;;;;;5075936;28;20560;-64
2021/12/03 20:14:57;;;;;;;13.02;9.13;;;3.40;75.80;;;;;;5075515;28;20031;-64
2021/12/03 20:17:28;;;;;;;14.15;9.10;;;3.50;76.00;;;;;;5076247;28;20107;-65
2021/12/03 20:19:57;;;;;;;12.68;9.00;;;3.40;75.90;;;;;;5075610;28;20055;-65
2021/12/03 20:27:54;;;;;;;14.45;9.38;;;3.30;76.10;;;;;;5066289;28;20487;-65
2021/12/03 20:30:38;;;;;;;13.27;9.35;;;3.30;76.30;;;;;;5076027;28;20366;-66
2021/12/03 20:33:38;;;;;;;13.40;9.63;;;3.30;76.80;;;;;;5075870;28;20044;-65
2021/12/03 20:39:02;;;;;;;11.68;8.40;;;3.20;76.30;;;;;;5077224;28;20028;-66
2021/12/03 20:41:55;;;;;;;14.10;9.45;;;3.20;76.60;;;;;;5075689;28;20028;-65
2021/12/03 20:47:22;;;;;;;11.73;8.20;;;3.20;76.30;;;;;;5095293;28;20051;-66
2021/12/03 21:08:38;;;;;;;11.63;7.97;;;3.10;75.90;;;;;;5095414;28;20031;-65
2021/12/03 21:11:15;;;;;;;11.45;7.35;;;3.00;75.60;;;;;;5095330;28;20028;-65
2021/12/03 21:13:42;;;;;;;10.95;7.80;;;3.10;75.40;;;;;;5094270;28;20452;-66
2021/12/03 21:16:41;;;;;;;10.43;6.93;;;3.00;75.20;;;;;;5091555;28;20209;-65
2021/12/03 21:19:37;;;;;;;16.38;10.80;;;3.00;74.90;;;;;;5094726;28;20081;-65
2021/12/03 21:22:16;;;;;;;11.88;7.07;;;3.10;75.10;;;;;;5091916;28;20032;-65
2021/12/03 21:24:42;;;;;;;11.10;7.38;;;3.00;74.60;;;;;;5093788;28;20039;-65
2021/12/03 21:27:13;;;;;;;10.45;6.65;;;3.00;73.50;;;;;;5094989;28;20606;-65
2021/12/03 21:30:11;;;;;;;10.20;7.03;;;3.00;73.40;;;;;;5094430;28;20024;-66
2021/12/03 21:38:06;;;;;;;9.57;6.75;;;3.00;73.40;;;;;;5094038;28;20035;-64
2021/12/03 21:43:18;;;;;;;7.43;6.03;;;3.00;73.40;;;;;;5094661;28;20033;-64
2021/12/03 21:45:44;;;;;;;10.20;6.47;;;2.90;73.00;;;;;;5093447;28;20052;-66
2021/12/03 21:48:11;;;;;;;12.30;7.30;;;2.90;73.10;;;;;;5080121;28;20077;-64
2021/12/03 21:50:38;;;;;;;10.63;7.00;;;2.90;73.30;;;;;;5074101;28;20381;-64